sensor_id;sensor_type;location;lat;lon;timestamp;P1;durP1;ratioP1;P2;durP2;ratioP2
53285;SDS011;39171;45.550;12.074;2023-10-13T00:05:22;17.70;;;11.75;;
53285;SDS011;39171;45.550;12.074;2023-10-13T00:11:26;17.70;;;11.93;;
53285;SDS011;39171;45.550;12.074;2023-10-13T00:17:28;15.77;;;11.43;;
53285;SDS011;39171;45.550;12.074;2023-10-13T00:23:30;15.05;;;11.45;;
53285;SDS011;39171;45.550;12.074;2023-10-13T00:29:33;17.13;;;11.93;;
53285;SDS011;39171;45.550;12.074;2023-10-13T00:35:38;15.93;;;11.80;;
53285;SDS011;39171;45.550;12.074;2023-10-13T00:41:45;15.68;;;11.32;;
53285;SDS011;39171;45.550;12.074;2023-10-13T00:47:53;14.00;;;11.23;;
53285;SDS011;39171;45.550;12.074;2023-10-13T00:54:02;17.92;;;12.13;;
53285;SDS011;39171;45.550;12.074;2023-10-13T01:00:08;14.90;;;11.23;;
53285;SDS011;39171;45.550;12.074;2023-10-13T01:06:29;14.60;;;10.98;;
53285;SDS011;39171;45.550;12.074;2023-10-13T01:12:32;16.80;;;10.98;;
53285;SDS011;39171;45.550;12.074;2023-10-13T01:18:34;13.50;;;10.20;;
53285;SDS011;39171;45.550;12.074;2023-10-13T01:24:40;13.68;;;10.02;;
53285;SDS011;39171;45.550;12.074;2023-10-13T01:30:42;17.50;;;11.77;;
53285;SDS011;39171;45.550;12.074;2023-10-13T01:36:45;14.52;;;11.35;;
53285;SDS011;39171;45.550;12.074;2023-10-13T01:42:48;17.20;;;12.10;;
53285;SDS011;39171;45.550;12.074;2023-10-13T01:48:56;17.15;;;11.32;;
53285;SDS011;39171;45.550;12.074;2023-10-13T01:54:57;14.85;;;11.10;;
53285;SDS011;39171;45.550;12.074;2023-10-13T02:01:01;13.85;;;10.15;;
53285;SDS011;39171;45.550;12.074;2023-10-13T02:07:08;13.75;;;10.35;;
53285;SDS011;39171;45.550;12.074;2023-10-13T02:13:15;13.73;;;10.98;;
53285;SDS011;39171;45.550;12.074;2023-10-13T02:19:18;12.77;;;10.45;;
53285;SDS011;39171;45.550;12.074;2023-10-13T02:25:20;14.15;;;10.68;;
53285;SDS011;39171;45.550;12.074;2023-10-13T02:31:43;15.15;;;10.68;;
53285;SDS011;39171;45.550;12.074;2023-10-13T02:37:55;14.55;;;11.10;;
53285;SDS011;39171;45.550;12.074;2023-10-13T02:43:58;13.27;;;10.68;;
53285;SDS011;39171;45.550;12.074;2023-10-13T02:50:00;14.55;;;10.02;;
53285;SDS011;39171;45.550;12.074;2023-10-13T02:56:01;16.75;;;12.45;;
53285;SDS011;39171;45.550;12.074;2023-10-13T03:02:07;15.80;;;10.65;;
53285;SDS011;39171;45.550;12.074;2023-10-13T03:08:18;15.75;;;11.30;;
53285;SDS011;39171;45.550;12.074;2023-10-13T03:14:27;16.67;;;12.02;;
53285;SDS011;39171;45.550;12.074;2023-10-13T03:20:32;16.17;;;12.68;;
53285;SDS011;39171;45.550;12.074;2023-10-13T03:26:33;15.88;;;11.55;;
53285;SDS011;39171;45.550;12.074;2023-10-13T03:32:36;15.10;;;11.20;;
53285;SDS011;39171;45.550;12.074;2023-10-13T03:38:44;15.63;;;11.77;;
53285;SDS011;39171;45.550;12.074;2023-10-13T03:44:46;16.92;;;12.40;;
53285;SDS011;39171;45.550;12.074;2023-10-13T03:50:47;17.33;;;11.85;;
53285;SDS011;39171;45.550;12.074;2023-10-13T03:57:04;15.55;;;11.85;;
53285;SDS011;39171;45.550;12.074;2023-10-13T04:03:11;17.45;;;12.50;;
53285;SDS011;39171;45.550;12.074;2023-10-13T04:09:25;16.10;;;11.65;;
53285;SDS011;39171;45.550;12.074;2023-10-13T04:15:32;16.15;;;11.65;;
53285;SDS011;39171;45.550;12.074;2023-10-13T04:22:02;19.43;;;12.67;;
53285;SDS011;39171;45.550;12.074;2023-10-13T04:28:15;16.15;;;11.38;;
53285;SDS011;39171;45.550;12.074;2023-10-13T04:40:40;16.48;;;12.15;;
53285;SDS011;39171;45.550;12.074;2023-10-13T04:46:59;17.70;;;11.97;;
53285;SDS011;39171;45.550;12.074;2023-10-13T04:53:01;16.98;;;11.32;;
53285;SDS011;39171;45.550;12.074;2023-10-13T04:59:03;14.50;;;10.75;;
53285;SDS011;39171;45.550;12.074;2023-10-13T05:05:18;17.42;;;12.23;;
53285;SDS011;39171;45.550;12.074;2023-10-13T05:11:42;15.55;;;12.15;;
53285;SDS011;39171;45.550;12.074;2023-10-13T05:18:02;17.63;;;12.68;;
53285;SDS011;39171;45.550;12.074;2023-10-13T05:24:23;14.63;;;11.68;;
53285;SDS011;39171;45.550;12.074;2023-10-13T05:30:43;16.85;;;11.82;;
53285;SDS011;39171;45.550;12.074;2023-10-13T05:37:02;16.63;;;11.80;;
53285;SDS011;39171;45.550;12.074;2023-10-13T05:43:22;14.27;;;10.60;;
53285;SDS011;39171;45.550;12.074;2023-10-13T05:49:42;16.43;;;11.33;;
53285;SDS011;39171;45.550;12.074;2023-10-13T05:56:04;15.70;;;11.65;;
53285;SDS011;39171;45.550;12.074;2023-10-13T06:02:27;14.25;;;10.90;;
53285;SDS011;39171;45.550;12.074;2023-10-13T06:08:48;14.07;;;10.20;;
53285;SDS011;39171;45.550;12.074;2023-10-13T06:15:08;13.23;;;10.43;;
53285;SDS011;39171;45.550;12.074;2023-10-13T06:21:28;12.73;;;10.40;;
53285;SDS011;39171;45.550;12.074;2023-10-13T06:27:48;11.15;;;8.80;;
53285;SDS011;39171;45.550;12.074;2023-10-13T06:34:08;12.25;;;9.93;;
53285;SDS011;39171;45.550;12.074;2023-10-13T06:40:10;13.00;;;9.13;;
53285;SDS011;39171;45.550;12.074;2023-10-13T06:46:31;12.70;;;10.13;;
53285;SDS011;39171;45.550;12.074;2023-10-13T06:52:34;12.20;;;8.82;;
53285;SDS011;39171;45.550;12.074;2023-10-13T06:58:36;11.40;;;8.60;;
53285;SDS011;39171;45.550;12.074;2023-10-13T07:04:45;10.38;;;8.48;;
53285;SDS011;39171;45.550;12.074;2023-10-13T07:10:48;9.68;;;8.10;;
53285;SDS011;39171;45.550;12.074;2023-10-13T07:16:56;9.45;;;7.18;;
53285;SDS011;39171;45.550;12.074;2023-10-13T07:23:01;9.25;;;7.95;;
53285;SDS011;39171;45.550;12.074;2023-10-13T07:29:10;11.50;;;8.27;;
53285;SDS011;39171;45.550;12.074;2023-10-13T07:35:12;10.07;;;7.30;;
53285;SDS011;39171;45.550;12.074;2023-10-13T07:41:16;11.15;;;8.32;;
53285;SDS011;39171;45.550;12.074;2023-10-13T07:47:18;9.57;;;7.88;;
53285;SDS011;39171;45.550;12.074;2023-10-13T07:53:25;9.77;;;7.55;;
53285;SDS011;39171;45.550;12.074;2023-10-13T07:59:36;9.73;;;7.85;;
53285;SDS011;39171;45.550;12.074;2023-10-13T08:06:16;11.05;;;7.93;;
53285;SDS011;39171;45.550;12.074;2023-10-13T08:12:30;10.30;;;8.70;;
53285;SDS011;39171;45.550;12.074;2023-10-13T08:18:32;8.75;;;7.07;;
53285;SDS011;39171;45.550;12.074;2023-10-13T08:24:34;8.40;;;7.35;;
53285;SDS011;39171;45.550;12.074;2023-10-13T08:31:06;7.72;;;6.57;;
53285;SDS011;39171;45.550;12.074;2023-10-13T08:37:48;7.78;;;6.22;;
53285;SDS011;39171;45.550;12.074;2023-10-13T08:44:11;7.90;;;6.78;;
53285;SDS011;39171;45.550;12.074;2023-10-13T08:50:42;8.65;;;6.82;;
53285;SDS011;39171;45.550;12.074;2023-10-13T08:56:49;7.28;;;5.43;;
53285;SDS011;39171;45.550;12.074;2023-10-13T09:02:57;7.55;;;5.68;;
53285;SDS011;39171;45.550;12.074;2023-10-13T09:09:21;7.40;;;5.78;;
53285;SDS011;39171;45.550;12.074;2023-10-13T09:15:35;6.55;;;4.60;;
53285;SDS011;39171;45.550;12.074;2023-10-13T09:22:09;4.70;;;3.75;;
53285;SDS011;39171;45.550;12.074;2023-10-13T09:28:28;5.22;;;4.18;;
53285;SDS011;39171;45.550;12.074;2023-10-13T09:34:32;4.93;;;4.22;;
53285;SDS011;39171;45.550;12.074;2023-10-13T09:40:34;9.75;;;7.53;;
53285;SDS011;39171;45.550;12.074;2023-10-13T09:46:39;6.78;;;5.15;;
53285;SDS011;39171;45.550;12.074;2023-10-13T09:52:42;9.07;;;6.95;;
53285;SDS011;39171;45.550;12.074;2023-10-13T09:58:48;7.53;;;5.55;;
53285;SDS011;39171;45.550;12.074;2023-10-13T10:04:58;4.03;;;3.35;;
53285;SDS011;39171;45.550;12.074;2023-10-13T10:17:28;11.30;;;7.95;;
53285;SDS011;39171;45.550;12.074;2023-10-13T10:23:34;11.95;;;8.88;;
53285;SDS011;39171;45.550;12.074;2023-10-13T10:29:53;9.20;;;7.07;;
53285;SDS011;39171;45.550;12.074;2023-10-13T10:35:59;11.68;;;8.95;;
53285;SDS011;39171;45.550;12.074;2023-10-13T10:42:11;11.32;;;9.30;;
53285;SDS011;39171;45.550;12.074;2023-10-13T10:48:17;17.02;;;12.50;;
53285;SDS011;39171;45.550;12.074;2023-10-13T10:54:19;16.83;;;12.25;;
53285;SDS011;39171;45.550;12.074;2023-10-13T11:00:21;14.32;;;10.95;;
53285;SDS011;39171;45.550;12.074;2023-10-13T11:06:37;18.00;;;12.35;;
53285;SDS011;39171;45.550;12.074;2023-10-13T11:12:59;24.67;;;15.88;;
53285;SDS011;39171;45.550;12.074;2023-10-13T11:19:41;14.15;;;10.73;;
53285;SDS011;39171;45.550;12.074;2023-10-13T11:25:43;24.75;;;17.88;;
53285;SDS011;39171;45.550;12.074;2023-10-13T11:31:46;24.00;;;18.08;;
53285;SDS011;39171;45.550;12.074;2023-10-13T11:37:55;24.75;;;17.90;;
53285;SDS011;39171;45.550;12.074;2023-10-13T11:44:14;26.63;;;18.85;;
53285;SDS011;39171;45.550;12.074;2023-10-13T11:50:18;22.15;;;16.90;;
53285;SDS011;39171;45.550;12.074;2023-10-13T11:56:33;29.15;;;20.30;;
53285;SDS011;39171;45.550;12.074;2023-10-13T12:02:34;21.75;;;15.55;;
53285;SDS011;39171;45.550;12.074;2023-10-13T12:08:54;23.40;;;17.13;;
53285;SDS011;39171;45.550;12.074;2023-10-13T12:14:59;28.60;;;19.83;;
53285;SDS011;39171;45.550;12.074;2023-10-13T12:21:10;21.42;;;16.48;;
53285;SDS011;39171;45.550;12.074;2023-10-13T12:27:13;17.20;;;12.98;;
53285;SDS011;39171;45.550;12.074;2023-10-13T12:33:21;23.38;;;16.58;;
53285;SDS011;39171;45.550;12.074;2023-10-13T12:39:25;18.00;;;13.38;;
53285;SDS011;39171;45.550;12.074;2023-10-13T12:45:46;26.07;;;17.83;;
53285;SDS011;39171;45.550;12.074;2023-10-13T12:52:07;19.63;;;15.32;;
53285;SDS011;39171;45.550;12.074;2023-10-13T12:58:26;15.20;;;11.35;;
53285;SDS011;39171;45.550;12.074;2023-10-13T13:04:27;19.30;;;14.23;;
53285;SDS011;39171;45.550;12.074;2023-10-13T13:10:34;18.85;;;14.63;;
53285;SDS011;39171;45.550;12.074;2023-10-13T13:16:36;23.42;;;16.90;;
53285;SDS011;39171;45.550;12.074;2023-10-13T13:22:39;29.35;;;18.67;;
53285;SDS011;39171;45.550;12.074;2023-10-13T13:45:27;27.10;;;18.58;;
53285;SDS011;39171;45.550;12.074;2023-10-13T13:51:29;25.77;;;18.60;;
53285;SDS011;39171;45.550;12.074;2023-10-13T13:57:35;23.45;;;17.10;;
53285;SDS011;39171;45.550;12.074;2023-10-13T14:03:37;27.00;;;18.27;;
53285;SDS011;39171;45.550;12.074;2023-10-13T14:09:46;20.33;;;15.18;;
53285;SDS011;39171;45.550;12.074;2023-10-13T14:15:52;21.02;;;16.42;;
53285;SDS011;39171;45.550;12.074;2023-10-13T14:21:57;13.77;;;11.27;;
53285;SDS011;39171;45.550;12.074;2023-10-13T14:27:59;17.70;;;13.32;;
53285;SDS011;39171;45.550;12.074;2023-10-13T14:34:02;17.23;;;13.18;;
53285;SDS011;39171;45.550;12.074;2023-10-13T14:40:03;18.30;;;14.10;;
53285;SDS011;39171;45.550;12.074;2023-10-13T14:46:09;24.85;;;17.42;;
53285;SDS011;39171;45.550;12.074;2023-10-13T14:52:10;21.52;;;15.35;;
53285;SDS011;39171;45.550;12.074;2023-10-13T14:58:12;22.48;;;15.55;;
53285;SDS011;39171;45.550;12.074;2023-10-13T15:04:16;18.85;;;14.48;;
53285;SDS011;39171;45.550;12.074;2023-10-13T15:10:18;22.25;;;16.67;;
53285;SDS011;39171;45.550;12.074;2023-10-13T15:16:20;23.65;;;18.55;;
53285;SDS011;39171;45.550;12.074;2023-10-13T15:22:23;26.27;;;18.98;;
53285;SDS011;39171;45.550;12.074;2023-10-13T15:28:28;19.30;;;15.10;;
53285;SDS011;39171;45.550;12.074;2023-10-13T15:34:31;20.60;;;15.70;;
53285;SDS011;39171;45.550;12.074;2023-10-13T15:40:33;22.02;;;17.55;;
53285;SDS011;39171;45.550;12.074;2023-10-13T15:46:42;17.48;;;13.90;;
53285;SDS011;39171;45.550;12.074;2023-10-13T15:52:48;20.77;;;16.05;;
53285;SDS011;39171;45.550;12.074;2023-10-13T15:58:50;22.42;;;18.90;;
53285;SDS011;39171;45.550;12.074;2023-10-13T16:04:51;25.50;;;19.30;;
53285;SDS011;39171;45.550;12.074;2023-10-13T16:11:02;24.73;;;17.90;;
53285;SDS011;39171;45.550;12.074;2023-10-13T16:17:07;19.27;;;15.80;;
53285;SDS011;39171;45.550;12.074;2023-10-13T16:23:09;21.35;;;17.20;;
53285;SDS011;39171;45.550;12.074;2023-10-13T16:29:11;17.88;;;14.30;;
53285;SDS011;39171;45.550;12.074;2023-10-13T16:35:13;15.82;;;13.52;;
53285;SDS011;39171;45.550;12.074;2023-10-13T16:41:17;14.02;;;11.80;;
53285;SDS011;39171;45.550;12.074;2023-10-13T16:47:19;16.38;;;13.15;;
53285;SDS011;39171;45.550;12.074;2023-10-13T16:53:23;12.25;;;10.80;;
53285;SDS011;39171;45.550;12.074;2023-10-13T16:59:25;10.23;;;8.63;;
53285;SDS011;39171;45.550;12.074;2023-10-13T17:05:26;11.88;;;9.43;;
53285;SDS011;39171;45.550;12.074;2023-10-13T17:11:28;10.55;;;8.80;;
53285;SDS011;39171;45.550;12.074;2023-10-13T17:17:30;11.75;;;9.70;;
53285;SDS011;39171;45.550;12.074;2023-10-13T17:23:31;14.18;;;11.70;;
53285;SDS011;39171;45.550;12.074;2023-10-13T17:29:35;12.02;;;10.38;;
53285;SDS011;39171;45.550;12.074;2023-10-13T17:35:40;8.68;;;7.25;;
53285;SDS011;39171;45.550;12.074;2023-10-13T17:41:43;8.98;;;6.93;;
53285;SDS011;39171;45.550;12.074;2023-10-13T17:47:45;6.75;;;6.05;;
53285;SDS011;39171;45.550;12.074;2023-10-13T17:53:46;7.13;;;6.10;;
53285;SDS011;39171;45.550;12.074;2023-10-13T17:59:48;7.25;;;5.63;;
53285;SDS011;39171;45.550;12.074;2023-10-13T18:05:57;5.93;;;5.00;;
53285;SDS011;39171;45.550;12.074;2023-10-13T18:12:00;6.18;;;5.07;;
53285;SDS011;39171;45.550;12.074;2023-10-13T18:18:01;6.03;;;4.95;;
53285;SDS011;39171;45.550;12.074;2023-10-13T18:24:03;5.72;;;4.55;;
53285;SDS011;39171;45.550;12.074;2023-10-13T18:30:05;5.95;;;4.72;;
53285;SDS011;39171;45.550;12.074;2023-10-13T18:36:14;6.07;;;4.97;;
53285;SDS011;39171;45.550;12.074;2023-10-13T18:42:25;5.13;;;4.50;;
53285;SDS011;39171;45.550;12.074;2023-10-13T18:48:35;6.93;;;4.90;;
53285;SDS011;39171;45.550;12.074;2023-10-13T18:54:38;5.72;;;4.90;;
53285;SDS011;39171;45.550;12.074;2023-10-13T19:00:41;7.00;;;5.50;;
53285;SDS011;39171;45.550;12.074;2023-10-13T19:06:42;6.22;;;4.80;;
53285;SDS011;39171;45.550;12.074;2023-10-13T19:12:44;5.35;;;4.60;;
53285;SDS011;39171;45.550;12.074;2023-10-13T19:18:51;6.38;;;5.38;;
53285;SDS011;39171;45.550;12.074;2023-10-13T19:24:53;7.22;;;5.72;;
53285;SDS011;39171;45.550;12.074;2023-10-13T19:30:55;7.00;;;5.88;;
53285;SDS011;39171;45.550;12.074;2023-10-13T19:36:56;7.65;;;5.82;;
53285;SDS011;39171;45.550;12.074;2023-10-13T19:43:04;6.78;;;5.53;;
53285;SDS011;39171;45.550;12.074;2023-10-13T19:49:12;7.13;;;5.57;;
53285;SDS011;39171;45.550;12.074;2023-10-13T19:55:13;8.48;;;6.25;;
53285;SDS011;39171;45.550;12.074;2023-10-13T20:01:18;6.43;;;5.20;;
53285;SDS011;39171;45.550;12.074;2023-10-13T20:07:22;7.95;;;6.38;;
53285;SDS011;39171;45.550;12.074;2023-10-13T20:13:23;8.35;;;6.55;;
53285;SDS011;39171;45.550;12.074;2023-10-13T20:19:25;7.43;;;6.07;;
53285;SDS011;39171;45.550;12.074;2023-10-13T20:25:26;10.50;;;7.55;;
53285;SDS011;39171;45.550;12.074;2023-10-13T20:31:28;10.93;;;8.07;;
53285;SDS011;39171;45.550;12.074;2023-10-13T20:37:36;10.63;;;8.02;;
53285;SDS011;39171;45.550;12.074;2023-10-13T20:43:48;8.40;;;6.88;;
53285;SDS011;39171;45.550;12.074;2023-10-13T20:49:49;8.88;;;7.10;;
53285;SDS011;39171;45.550;12.074;2023-10-13T20:56:04;7.45;;;6.07;;
53285;SDS011;39171;45.550;12.074;2023-10-13T21:02:11;6.85;;;5.85;;
53285;SDS011;39171;45.550;12.074;2023-10-13T21:08:14;8.73;;;7.50;;
53285;SDS011;39171;45.550;12.074;2023-10-13T21:14:16;13.02;;;9.63;;
53285;SDS011;39171;45.550;12.074;2023-10-13T21:20:17;9.45;;;7.75;;
53285;SDS011;39171;45.550;12.074;2023-10-13T21:26:22;10.10;;;8.52;;
53285;SDS011;39171;45.550;12.074;2023-10-13T21:32:26;10.02;;;8.40;;
53285;SDS011;39171;45.550;12.074;2023-10-13T21:38:29;11.25;;;8.73;;
53285;SDS011;39171;45.550;12.074;2023-10-13T21:44:35;10.90;;;8.25;;
53285;SDS011;39171;45.550;12.074;2023-10-13T21:50:39;11.48;;;9.40;;
53285;SDS011;39171;45.550;12.074;2023-10-13T21:56:41;11.10;;;8.52;;
53285;SDS011;39171;45.550;12.074;2023-10-13T22:02:50;13.95;;;9.45;;
53285;SDS011;39171;45.550;12.074;2023-10-13T22:08:52;12.27;;;9.25;;
53285;SDS011;39171;45.550;12.074;2023-10-13T22:14:54;10.88;;;9.57;;
53285;SDS011;39171;45.550;12.074;2023-10-13T22:20:55;9.10;;;7.35;;
53285;SDS011;39171;45.550;12.074;2023-10-13T22:26:59;8.95;;;7.65;;
53285;SDS011;39171;45.550;12.074;2023-10-13T22:33:00;11.40;;;9.20;;
53285;SDS011;39171;45.550;12.074;2023-10-13T22:39:04;11.15;;;9.32;;
53285;SDS011;39171;45.550;12.074;2023-10-13T22:45:16;12.55;;;9.50;;
53285;SDS011;39171;45.550;12.074;2023-10-13T22:51:19;11.25;;;9.13;;
53285;SDS011;39171;45.550;12.074;2023-10-13T22:57:22;9.55;;;7.97;;
53285;SDS011;39171;45.550;12.074;2023-10-13T23:03:24;10.00;;;8.80;;
53285;SDS011;39171;45.550;12.074;2023-10-13T23:09:36;11.25;;;8.93;;
53285;SDS011;39171;45.550;12.074;2023-10-13T23:15:48;11.10;;;9.82;;
53285;SDS011;39171;45.550;12.074;2023-10-13T23:21:54;11.38;;;9.48;;
53285;SDS011;39171;45.550;12.074;2023-10-13T23:27:55;11.30;;;8.88;;
53285;SDS011;39171;45.550;12.074;2023-10-13T23:33:57;13.43;;;10.15;;
53285;SDS011;39171;45.550;12.074;2023-10-13T23:39:59;12.13;;;9.50;;
53285;SDS011;39171;45.550;12.074;2023-10-13T23:46:00;12.50;;;10.95;;
53285;SDS011;39171;45.550;12.074;2023-10-13T23:52:06;11.20;;;9.35;;
53285;SDS011;39171;45.550;12.074;2023-10-13T23:58:08;11.40;;;9.55;;
